createdAt,value
2023-01-20T00:01:50.240Z,28.67
2023-01-20T00:04:54.379Z,27.15
2023-01-20T00:07:59.048Z,26.98
2023-01-20T00:11:11.949Z,32.47
2023-01-20T00:14:16.594Z,20.77
2023-01-20T00:17:21.446Z,21.57
2023-01-20T00:20:25.684Z,54.28
2023-01-20T00:23:29.443Z,19.85
2023-01-20T00:26:33.805Z,19.20
2023-01-20T00:29:37.636Z,21.15
2023-01-20T00:32:46.328Z,21.05
2023-01-20T00:35:50.352Z,21.45
2023-01-20T00:38:55.105Z,13.77
2023-01-20T00:41:58.834Z,12.27
2023-01-20T00:45:03.404Z,92.73
2023-01-20T00:48:07.555Z,13.10
2023-01-20T00:51:11.980Z,17.33
2023-01-20T00:54:15.706Z,18.50
2023-01-20T00:57:20.030Z,18.23
2023-01-20T01:00:24.082Z,23.50
2023-01-20T01:03:28.927Z,19.88
2023-01-20T01:06:32.962Z,24.55
2023-01-20T01:09:37.631Z,16.90
2023-01-20T01:12:41.383Z,33.13
2023-01-20T01:15:51.870Z,25.88
2023-01-20T01:18:56.538Z,30.02
2023-01-20T01:22:00.705Z,18.58
2023-01-20T01:25:04.501Z,16.92
2023-01-20T01:28:09.260Z,17.87
2023-01-20T01:31:13.039Z,28.98
2023-01-20T01:34:17.479Z,22.00
2023-01-20T01:37:21.216Z,27.08
2023-01-20T01:40:25.441Z,24.13
2023-01-20T01:43:33.673Z,14.63
2023-01-20T01:46:38.464Z,15.85
2023-01-20T01:49:42.184Z,15.93
2023-01-20T01:52:49.620Z,17.02
2023-01-20T01:56:00.151Z,19.20
2023-01-20T01:59:05.190Z,19.30
2023-01-20T02:02:12.263Z,12.93
2023-01-20T02:05:21.994Z,8.75
2023-01-20T02:08:44.394Z,14.18
2023-01-20T02:12:03.832Z,12.73
2023-01-20T02:15:08.358Z,15.15
2023-01-20T02:18:21.688Z,14.35
2023-01-20T02:22:06.549Z,14.20
2023-01-20T02:25:30.854Z,14.17
2023-01-20T02:29:05.876Z,23.70
2023-01-20T02:32:29.571Z,13.20
2023-01-20T02:35:54.586Z,15.40
2023-01-20T02:39:07.053Z,16.08
2023-01-20T02:42:10.693Z,17.00
2023-01-20T02:45:39.031Z,13.65
2023-01-20T02:48:52.739Z,11.88
2023-01-20T02:52:06.338Z,11.80
2023-01-20T02:55:14.843Z,13.65
2023-01-20T02:58:57.765Z,16.92
2023-01-20T03:02:07.382Z,16.92
2023-01-20T03:05:21.999Z,16.52
2023-01-20T03:08:30.971Z,24.60
2023-01-20T03:11:40.157Z,12.50
2023-01-20T03:14:44.109Z,38.53
2023-01-20T03:17:48.697Z,14.45
2023-01-20T03:20:52.921Z,13.65
2023-01-20T03:24:03.327Z,19.73
2023-01-20T03:27:07.803Z,19.83
2023-01-20T03:30:17.528Z,20.58
2023-01-20T03:33:21.349Z,16.25
2023-01-20T03:36:29.478Z,16.98
2023-01-20T03:39:34.700Z,8.43
2023-01-20T03:43:02.992Z,10.30
2023-01-20T03:46:25.181Z,23.65
2023-01-20T03:49:52.813Z,22.63
2023-01-20T03:53:08.030Z,49.10
2023-01-20T03:56:37.895Z,19.35
2023-01-20T03:59:45.099Z,15.88
2023-01-20T04:02:50.902Z,22.85
2023-01-20T04:05:56.673Z,11.15
2023-01-20T04:09:11.224Z,16.35
2023-01-20T04:12:15.404Z,13.95
2023-01-20T04:15:21.348Z,14.15
2023-01-20T04:18:25.593Z,14.05
2023-01-20T04:21:42.149Z,20.30
2023-01-20T04:24:51.645Z,22.48
2023-01-20T04:27:55.960Z,25.65
2023-01-20T04:30:59.849Z,20.98
2023-01-20T04:34:05.279Z,22.50
2023-01-20T04:37:09.025Z,44.13
2023-01-20T04:40:13.795Z,15.70
2023-01-20T04:43:19.141Z,24.83
2023-01-20T04:46:23.490Z,8.45
2023-01-20T04:49:27.312Z,12.60
2023-01-20T04:52:31.762Z,17.67
2023-01-20T04:55:35.550Z,11.75
2023-01-20T04:58:40.365Z,9.10
2023-01-20T05:01:44.202Z,18.87
2023-01-20T05:04:48.612Z,4.97
2023-01-20T05:07:56.148Z,19.80
2023-01-20T05:11:01.296Z,12.10
2023-01-20T05:14:05.300Z,15.70
2023-01-20T05:17:09.773Z,11.90
2023-01-20T05:20:15.352Z,23.33
2023-01-20T05:23:20.168Z,12.10
2023-01-20T05:26:24.967Z,21.13
2023-01-20T05:29:30.117Z,28.67
2023-01-20T05:32:34.019Z,8.98
2023-01-20T05:35:41.664Z,14.10
2023-01-20T05:38:48.518Z,16.45
2023-01-20T05:41:52.725Z,9.85
2023-01-20T05:44:56.475Z,3.45
2023-01-20T05:48:02.114Z,9.13
2023-01-20T05:54:11.454Z,27.20
2023-01-20T05:57:18.921Z,4.45
2023-01-20T06:00:23.840Z,18.50
2023-01-20T06:03:27.583Z,14.97
2023-01-20T06:06:31.893Z,12.40
2023-01-20T06:09:35.743Z,9.23
2023-01-20T06:12:40.544Z,7.93
2023-01-20T06:15:44.486Z,11.32
2023-01-20T06:18:48.894Z,12.57
2023-01-20T06:21:54.204Z,15.15
2023-01-20T06:24:58.898Z,18.40
2023-01-20T06:28:02.740Z,15.37
2023-01-20T06:31:10.412Z,15.43
2023-01-20T06:34:14.919Z,26.75
2023-01-20T06:37:19.421Z,23.27
2023-01-20T06:40:23.392Z,18.52
2023-01-20T06:43:31.713Z,22.23
2023-01-20T06:46:35.827Z,16.02
2023-01-20T06:49:40.229Z,22.23
2023-01-20T06:52:44.079Z,14.65
2023-01-20T06:55:57.614Z,10.03
2023-01-20T06:59:01.446Z,17.35
2023-01-20T07:02:06.028Z,9.83
2023-01-20T07:05:11.371Z,13.23
2023-01-20T07:08:15.830Z,8.88
2023-01-20T07:11:19.995Z,24.00
2023-01-20T07:14:24.330Z,17.02
2023-01-20T07:17:28.347Z,13.77
2023-01-20T07:20:32.560Z,13.73
2023-01-20T07:23:36.292Z,9.27
2023-01-20T07:26:40.911Z,20.20
2023-01-20T07:29:45.371Z,30.33
2023-01-20T07:32:52.444Z,23.65
2023-01-20T07:35:56.391Z,14.40
2023-01-20T07:39:00.821Z,25.30
2023-01-20T07:42:04.720Z,14.15
2023-01-20T07:45:09.434Z,23.10
2023-01-20T07:48:13.226Z,20.15
2023-01-20T07:51:18.239Z,29.47
2023-01-20T07:54:22.030Z,21.48
2023-01-20T07:57:26.523Z,31.77
2023-01-20T08:00:30.194Z,40.50
2023-01-20T08:03:34.492Z,51.25
2023-01-20T08:06:38.395Z,53.67
2023-01-20T08:09:44.838Z,34.75
2023-01-20T08:12:48.582Z,36.85
2023-01-20T08:15:53.804Z,18.47
2023-01-20T08:22:02.047Z,24.25
2023-01-20T08:25:06.086Z,34.20
2023-01-20T08:28:10.878Z,31.52
2023-01-20T08:31:18.065Z,22.70
2023-01-20T08:34:24.058Z,33.67
2023-01-20T08:37:27.940Z,28.48
2023-01-20T08:40:34.074Z,63.03
2023-01-20T08:43:38.356Z,44.55
2023-01-20T08:46:43.251Z,72.45
2023-01-20T08:49:47.043Z,57.80
2023-01-20T08:52:51.555Z,50.57
2023-01-20T08:55:59.898Z,70.05
2023-01-20T08:59:05.029Z,135.85
2023-01-20T09:02:12.818Z,410.10
2023-01-20T09:05:17.271Z,226.35
2023-01-20T09:08:21.737Z,98.05
2023-01-20T09:11:29.118Z,83.88
2023-01-20T09:14:33.167Z,82.47
2023-01-20T09:17:37.854Z,87.45
2023-01-20T09:20:41.780Z,65.88
2023-01-20T09:23:49.164Z,102.43
2023-01-20T09:26:53.606Z,167.02
2023-01-20T09:29:58.182Z,102.47
2023-01-20T09:33:03.063Z,115.97
2023-01-20T09:36:10.582Z,95.88
2023-01-20T09:39:33.440Z,52.35
2023-01-20T09:43:29.221Z,56.55
2023-01-20T09:47:10.773Z,67.28
2023-01-20T09:50:42.304Z,63.20
2023-01-20T09:54:00.043Z,67.63
2023-01-20T09:57:07.993Z,53.80
2023-01-20T10:00:22.526Z,58.47
2023-01-20T10:03:49.647Z,44.23
2023-01-20T10:07:08.723Z,25.90
2023-01-20T10:10:32.705Z,28.27
2023-01-20T10:13:47.964Z,26.52
2023-01-20T10:17:08.518Z,31.45
2023-01-20T10:20:21.031Z,46.63
2023-01-20T10:23:34.887Z,24.02
2023-01-20T10:26:58.421Z,14.80
2023-01-20T10:30:14.674Z,14.02
2023-01-20T10:33:42.480Z,13.65
2023-01-20T10:36:52.074Z,16.92
2023-01-20T10:40:04.700Z,4.03
2023-01-20T10:43:16.692Z,2.25
2023-01-20T10:46:34.139Z,2.55
2023-01-20T10:49:47.078Z,4.82
2023-01-20T10:52:51.883Z,7.05
2023-01-20T10:56:30.747Z,8.98
2023-01-20T10:59:44.188Z,12.43
2023-01-20T11:02:50.232Z,4.28
2023-01-20T11:05:54.961Z,4.95
2023-01-20T11:09:12.960Z,10.63
2023-01-20T11:12:24.898Z,5.68
2023-01-20T11:15:39.373Z,3.05
2023-01-20T11:18:44.786Z,4.75
2023-01-20T11:21:50.776Z,8.93
2023-01-20T11:24:57.431Z,10.57
2023-01-20T11:28:03.764Z,11.98
2023-01-20T11:31:07.986Z,21.92
2023-01-20T11:34:28.957Z,32.73
2023-01-20T11:37:39.588Z,22.88
2023-01-20T11:40:55.935Z,51.00
2023-01-20T11:44:01.726Z,53.78
2023-01-20T11:47:33.146Z,51.03
2023-01-20T11:50:55.029Z,32.65
2023-01-20T11:54:10.105Z,28.83
2023-01-20T11:57:18.578Z,33.58
2023-01-20T12:00:32.961Z,34.75
2023-01-20T12:04:21.021Z,76.35
2023-01-20T12:07:40.564Z,68.20
2023-01-20T12:10:47.202Z,31.20
2023-01-20T12:14:24.183Z,28.80
2023-01-20T12:17:43.409Z,21.40
2023-01-20T12:21:00.350Z,23.48
2023-01-20T12:24:52.450Z,18.70
2023-01-20T12:28:10.552Z,14.57
2023-01-20T12:31:20.773Z,21.23
2023-01-20T12:34:30.659Z,18.45
2023-01-20T12:37:58.468Z,21.90
2023-01-20T12:41:08.991Z,15.75
2023-01-20T12:44:36.159Z,10.48
2023-01-20T12:48:18.063Z,42.05
2023-01-20T12:51:30.230Z,85.25
2023-01-20T12:54:52.537Z,181.90
2023-01-20T12:58:13.640Z,93.70
2023-01-20T13:01:29.546Z,92.63
2023-01-20T13:04:55.436Z,45.85
2023-01-20T13:08:14.172Z,61.08
2023-01-20T13:12:00.312Z,38.97
2023-01-20T13:18:58.265Z,45.72
2023-01-20T13:22:36.703Z,33.28
2023-01-20T13:25:42.208Z,24.00
2023-01-20T13:28:57.480Z,43.83
2023-01-20T13:32:01.787Z,47.45
2023-01-20T13:35:27.078Z,126.00
2023-01-20T13:38:33.917Z,78.15
2023-01-20T13:41:54.011Z,111.80
2023-01-20T13:45:13.729Z,72.90
2023-01-20T13:48:26.840Z,74.00
2023-01-20T13:51:39.819Z,89.20
2023-01-20T13:54:48.761Z,101.38
2023-01-20T13:57:52.832Z,67.60
2023-01-20T14:01:09.809Z,122.18
2023-01-20T14:04:19.737Z,32.80
2023-01-20T14:07:29.084Z,136.48
2023-01-20T14:10:33.432Z,140.35
2023-01-20T14:13:37.500Z,157.82
2023-01-20T14:16:44.299Z,139.60
2023-01-20T14:19:54.093Z,193.82
2023-01-20T14:23:24.858Z,73.85
2023-01-20T14:26:31.644Z,62.83
2023-01-20T14:29:36.206Z,156.10
2023-01-20T14:32:40.393Z,141.57
2023-01-20T14:35:45.495Z,120.75
2023-01-20T14:38:58.873Z,112.75
2023-01-20T14:42:03.284Z,119.83
2023-01-20T14:45:24.413Z,282.67
2023-01-20T14:48:34.823Z,191.38
2023-01-20T14:51:39.254Z,219.18
2023-01-20T14:57:51.523Z,92.63
2023-01-20T15:01:00.999Z,154.63
2023-01-20T15:04:06.846Z,157.88
2023-01-20T15:07:20.501Z,52.65
2023-01-20T15:10:24.500Z,40.03
2023-01-20T15:13:31.836Z,67.90
2023-01-20T15:16:45.615Z,115.07
2023-01-20T15:19:49.897Z,80.93
2023-01-20T15:22:54.348Z,83.78
2023-01-20T15:26:09.237Z,63.08
2023-01-20T15:29:33.737Z,52.78
2023-01-20T15:35:42.918Z,68.88
2023-01-20T15:38:47.214Z,41.28
2023-01-20T15:41:58.489Z,26.85
2023-01-20T15:45:02.261Z,73.95
2023-01-20T15:48:17.618Z,88.63
2023-01-20T15:54:25.874Z,56.55
2023-01-20T15:57:31.627Z,62.22
2023-01-20T16:00:35.841Z,54.95
2023-01-20T16:03:39.610Z,43.88
2023-01-20T16:06:44.140Z,39.38
2023-01-20T16:09:48.335Z,59.28
2023-01-20T16:12:53.202Z,42.55
2023-01-20T16:15:57.979Z,19.05
2023-01-20T16:19:02.607Z,58.70
2023-01-20T16:22:07.736Z,54.40
2023-01-20T16:25:12.156Z,56.17
2023-01-20T16:28:20.508Z,32.33
2023-01-20T16:31:26.984Z,120.88
2023-01-20T16:34:31.093Z,10.52
2023-01-20T16:37:35.463Z,21.80
2023-01-20T16:40:50.383Z,20.20
2023-01-20T16:43:56.950Z,70.63
2023-01-20T16:47:00.990Z,55.05
2023-01-20T16:50:05.621Z,50.15
2023-01-20T16:56:24.602Z,103.63
2023-01-20T16:59:28.412Z,84.20
2023-01-20T17:05:36.555Z,115.35
